sensor_id;sensor_type;location;lat;lon;timestamp;pressure;altitude;pressure_sealevel;temperature;humidity
77583;BME280;66726;52.388;9.986;2023-09-19T00:00:48;99948.81;;;17.16;82.18
77583;BME280;66726;52.388;9.986;2023-09-19T00:03:19;99941.78;;;17.15;82.14
77583;BME280;66726;52.388;9.986;2023-09-19T00:05:50;99947.56;;;17.18;82.12
77583;BME280;66726;52.388;9.986;2023-09-19T00:08:18;99949.00;;;17.21;81.67
77583;BME280;66726;52.388;9.986;2023-09-19T00:10:50;99939.06;;;17.15;82.12
77583;BME280;66726;52.388;9.986;2023-09-19T00:13:20;99950.72;;;17.15;81.92
77583;BME280;66726;52.388;9.986;2023-09-19T00:15:49;99946.41;;;17.08;82.55
77583;BME280;66726;52.388;9.986;2023-09-19T00:18:20;99954.06;;;17.11;82.99
77583;BME280;66726;52.388;9.986;2023-09-19T00:20:50;99945.78;;;17.06;82.26
77583;BME280;66726;52.388;9.986;2023-09-19T00:23:20;99954.41;;;16.96;82.70
77583;BME280;66726;52.388;9.986;2023-09-19T00:25:48;99958.94;;;16.78;82.62
77583;BME280;66726;52.388;9.986;2023-09-19T00:28:18;99956.09;;;16.66;84.01
77583;BME280;66726;52.388;9.986;2023-09-19T00:30:47;99944.59;;;16.39;84.35
77583;BME280;66726;52.388;9.986;2023-09-19T00:33:19;99947.03;;;16.47;84.52
77583;BME280;66726;52.388;9.986;2023-09-19T00:35:48;99935.03;;;16.43;84.24
77583;BME280;66726;52.388;9.986;2023-09-19T00:38:17;99936.34;;;16.28;86.27
77583;BME280;66726;52.388;9.986;2023-09-19T00:40:49;99938.19;;;16.34;85.21
77583;BME280;66726;52.388;9.986;2023-09-19T00:43:18;99935.06;;;16.30;85.13
77583;BME280;66726;52.388;9.986;2023-09-19T00:45:48;99935.94;;;16.24;85.54
77583;BME280;66726;52.388;9.986;2023-09-19T00:48:20;99929.31;;;16.27;85.14
77583;BME280;66726;52.388;9.986;2023-09-19T00:50:50;99929.69;;;16.30;85.53
77583;BME280;66726;52.388;9.986;2023-09-19T00:53:21;99936.59;;;16.26;85.22
77583;BME280;66726;52.388;9.986;2023-09-19T00:55:51;99938.41;;;16.32;84.97
77583;BME280;66726;52.388;9.986;2023-09-19T00:58:20;99936.59;;;16.26;85.25
77583;BME280;66726;52.388;9.986;2023-09-19T01:00:49;99938.22;;;16.27;85.62
77583;BME280;66726;52.388;9.986;2023-09-19T01:03:19;99937.78;;;16.30;84.78
77583;BME280;66726;52.388;9.986;2023-09-19T01:05:49;99944.69;;;16.26;84.68
77583;BME280;66726;52.388;9.986;2023-09-19T01:08:17;99952.78;;;16.26;84.39
77583;BME280;66726;52.388;9.986;2023-09-19T01:10:52;99949.66;;;16.29;83.76
77583;BME280;66726;52.388;9.986;2023-09-19T01:13:29;99959.22;;;16.25;84.60
77583;BME280;66726;52.388;9.986;2023-09-19T01:16:06;99965.66;;;16.24;85.41
77583;BME280;66726;52.388;9.986;2023-09-19T01:18:59;99969.19;;;16.24;85.46
77583;BME280;66726;52.388;9.986;2023-09-19T01:21:36;99960.53;;;16.16;85.20
77583;BME280;66726;52.388;9.986;2023-09-19T01:24:31;99964.69;;;16.12;85.42
77583;BME280;66726;52.388;9.986;2023-09-19T01:27:25;99965.28;;;16.14;86.00
77583;BME280;66726;52.388;9.986;2023-09-19T01:30:10;99968.00;;;16.14;85.03
77583;BME280;66726;52.388;9.986;2023-09-19T01:32:42;99964.50;;;16.07;84.97
77583;BME280;66726;52.388;9.986;2023-09-19T01:35:13;99963.06;;;16.04;84.79
77583;BME280;66726;52.388;9.986;2023-09-19T01:37:42;99978.47;;;15.97;85.31
77583;BME280;66726;52.388;9.986;2023-09-19T01:40:13;99974.50;;;16.00;85.57
77583;BME280;66726;52.388;9.986;2023-09-19T01:42:48;99979.72;;;15.95;85.82
77583;BME280;66726;52.388;9.986;2023-09-19T01:45:42;99978.88;;;15.94;85.12
77583;BME280;66726;52.388;9.986;2023-09-19T01:48:22;99983.44;;;15.94;84.65
77583;BME280;66726;52.388;9.986;2023-09-19T01:50:58;99984.47;;;15.93;84.18
77583;BME280;66726;52.388;9.986;2023-09-19T01:53:30;99989.50;;;15.96;84.69
77583;BME280;66726;52.388;9.986;2023-09-19T01:56:02;99988.84;;;15.94;84.74
77583;BME280;66726;52.388;9.986;2023-09-19T01:58:35;99989.50;;;15.96;85.09
77583;BME280;66726;52.388;9.986;2023-09-19T02:01:09;100003.78;;;15.96;84.42
77583;BME280;66726;52.388;9.986;2023-09-19T02:03:40;99990.09;;;15.98;84.86
77583;BME280;66726;52.388;9.986;2023-09-19T02:06:14;99997.59;;;15.96;84.34
77583;BME280;66726;52.388;9.986;2023-09-19T02:08:43;100000.50;;;15.94;85.51
77583;BME280;66726;52.388;9.986;2023-09-19T02:11:12;100003.00;;;15.96;85.48
77583;BME280;66726;52.388;9.986;2023-09-19T02:13:41;100014.38;;;15.98;84.55
77583;BME280;66726;52.388;9.986;2023-09-19T02:16:11;100009.81;;;15.98;84.84
77583;BME280;66726;52.388;9.986;2023-09-19T02:18:40;99997.16;;;15.99;84.75
77583;BME280;66726;52.388;9.986;2023-09-19T02:21:09;100007.13;;;15.98;83.89
77583;BME280;66726;52.388;9.986;2023-09-19T02:23:39;100018.13;;;15.97;84.62
77583;BME280;66726;52.388;9.986;2023-09-19T02:26:08;100017.50;;;15.95;84.65
77583;BME280;66726;52.388;9.986;2023-09-19T02:28:38;100019.56;;;15.99;83.85
77583;BME280;66726;52.388;9.986;2023-09-19T02:31:07;100028.91;;;16.03;83.82
77583;BME280;66726;52.388;9.986;2023-09-19T02:33:37;100027.88;;;15.98;83.99
77583;BME280;66726;52.388;9.986;2023-09-19T02:36:06;100027.66;;;15.99;83.97
77583;BME280;66726;52.388;9.986;2023-09-19T02:38:36;100039.94;;;16.02;83.32
77583;BME280;66726;52.388;9.986;2023-09-19T02:41:04;100035.97;;;16.04;82.80
77583;BME280;66726;52.388;9.986;2023-09-19T02:43:33;100049.28;;;16.06;83.31
77583;BME280;66726;52.388;9.986;2023-09-19T02:46:02;100043.88;;;16.06;82.58
77583;BME280;66726;52.388;9.986;2023-09-19T02:48:31;100043.88;;;16.06;83.16
77583;BME280;66726;52.388;9.986;2023-09-19T02:51:03;100042.41;;;16.03;82.52
77583;BME280;66726;52.388;9.986;2023-09-19T02:53:32;100040.97;;;16.01;83.70
77583;BME280;66726;52.388;9.986;2023-09-19T02:56:01;100033.28;;;15.98;81.52
77583;BME280;66726;52.388;9.986;2023-09-19T02:58:31;100033.28;;;15.98;81.69
77583;BME280;66726;52.388;9.986;2023-09-19T03:01:08;100037.66;;;15.99;81.36
77583;BME280;66726;52.388;9.986;2023-09-19T03:03:39;100036.19;;;15.96;80.97
77583;BME280;66726;52.388;9.986;2023-09-19T03:06:09;100041.19;;;15.93;81.68
77583;BME280;66726;52.388;9.986;2023-09-19T03:08:40;100043.28;;;15.91;80.36
77583;BME280;66726;52.388;9.986;2023-09-19T03:11:09;100038.31;;;15.88;80.68
77583;BME280;66726;52.388;9.986;2023-09-19T03:13:40;100044.72;;;15.87;80.26
77583;BME280;66726;52.388;9.986;2023-09-19T03:16:10;100053.69;;;15.81;81.01
77583;BME280;66726;52.388;9.986;2023-09-19T03:18:38;100062.38;;;15.83;80.79
77583;BME280;66726;52.388;9.986;2023-09-19T03:21:08;100047.03;;;15.77;79.85
77583;BME280;66726;52.388;9.986;2023-09-19T03:23:39;100065.72;;;15.78;80.19
77583;BME280;66726;52.388;9.986;2023-09-19T03:26:08;100059.69;;;15.76;79.88
77583;BME280;66726;52.388;9.986;2023-09-19T03:28:37;100050.78;;;15.76;79.22
77583;BME280;66726;52.388;9.986;2023-09-19T03:31:06;100057.66;;;15.71;79.10
77583;BME280;66726;52.388;9.986;2023-09-19T03:33:35;100062.00;;;15.72;78.81
77583;BME280;66726;52.388;9.986;2023-09-19T03:36:05;100064.91;;;15.78;78.42
77583;BME280;66726;52.388;9.986;2023-09-19T03:38:35;100068.63;;;15.70;78.99
77583;BME280;66726;52.388;9.986;2023-09-19T03:41:04;100072.78;;;15.72;78.65
77583;BME280;66726;52.388;9.986;2023-09-19T03:43:33;100073.44;;;15.68;78.13
77583;BME280;66726;52.388;9.986;2023-09-19T03:46:02;100081.13;;;15.64;78.48
77583;BME280;66726;52.388;9.986;2023-09-19T03:48:31;100075.72;;;15.58;78.33
77583;BME280;66726;52.388;9.986;2023-09-19T03:51:00;100072.38;;;15.56;79.33
77583;BME280;66726;52.388;9.986;2023-09-19T03:53:29;100076.34;;;15.53;78.81
77583;BME280;66726;52.388;9.986;2023-09-19T03:55:59;100079.19;;;15.45;78.85
77583;BME280;66726;52.388;9.986;2023-09-19T03:58:28;100081.91;;;15.45;79.20
77583;BME280;66726;52.388;9.986;2023-09-19T04:00:57;100080.03;;;15.46;79.08
77583;BME280;66726;52.388;9.986;2023-09-19T04:03:26;100089.38;;;15.43;79.43
77583;BME280;66726;52.388;9.986;2023-09-19T04:06:02;100083.56;;;15.40;79.94
77583;BME280;66726;52.388;9.986;2023-09-19T04:08:31;100089.81;;;15.40;79.79
77583;BME280;66726;52.388;9.986;2023-09-19T04:11:00;100090.22;;;15.37;79.60
77583;BME280;66726;52.388;9.986;2023-09-19T04:13:29;100092.69;;;15.39;80.51
77583;BME280;66726;52.388;9.986;2023-09-19T04:15:57;100086.28;;;15.40;80.51
77583;BME280;66726;52.388;9.986;2023-09-19T04:18:26;100087.72;;;15.29;80.94
77583;BME280;66726;52.388;9.986;2023-09-19T04:20:55;100096.84;;;15.28;80.58
77583;BME280;66726;52.388;9.986;2023-09-19T04:23:23;100088.13;;;15.33;80.60
77583;BME280;66726;52.388;9.986;2023-09-19T04:25:52;100099.75;;;15.27;81.44
77583;BME280;66726;52.388;9.986;2023-09-19T04:28:22;100101.63;;;15.26;81.77
77583;BME280;66726;52.388;9.986;2023-09-19T04:30:51;100104.91;;;15.21;81.03
77583;BME280;66726;52.388;9.986;2023-09-19T04:33:20;100101.81;;;15.24;81.40
77583;BME280;66726;52.388;9.986;2023-09-19T04:35:49;100104.31;;;15.26;80.78
77583;BME280;66726;52.388;9.986;2023-09-19T04:38:18;100113.84;;;15.22;81.08
77583;BME280;66726;52.388;9.986;2023-09-19T04:40:47;100105.13;;;15.20;81.25
77583;BME280;66726;52.388;9.986;2023-09-19T04:43:16;100113.00;;;15.21;81.18
77583;BME280;66726;52.388;9.986;2023-09-19T04:45:46;100119.25;;;15.22;80.64
77583;BME280;66726;52.388;9.986;2023-09-19T04:48:15;100116.94;;;15.19;80.49
77583;BME280;66726;52.388;9.986;2023-09-19T04:50:43;100122.13;;;15.14;80.63
77583;BME280;66726;52.388;9.986;2023-09-19T04:53:12;100127.50;;;15.14;81.17
77583;BME280;66726;52.388;9.986;2023-09-19T04:55:40;100125.22;;;15.17;80.35
77583;BME280;66726;52.388;9.986;2023-09-19T04:58:09;100130.63;;;15.17;80.62
77583;BME280;66726;52.388;9.986;2023-09-19T05:00:38;100135.22;;;15.17;80.62
77583;BME280;66726;52.388;9.986;2023-09-19T05:03:07;100135.41;;;15.15;80.84
77583;BME280;66726;52.388;9.986;2023-09-19T05:05:36;100137.09;;;15.16;80.42
77583;BME280;66726;52.388;9.986;2023-09-19T05:08:06;100142.66;;;15.08;81.21
77583;BME280;66726;52.388;9.986;2023-09-19T05:10:36;100145.75;;;15.05;82.18
77583;BME280;66726;52.388;9.986;2023-09-19T05:13:06;100145.75;;;15.05;82.09
77583;BME280;66726;52.388;9.986;2023-09-19T05:15:35;100149.06;;;15.01;82.15
77583;BME280;66726;52.388;9.986;2023-09-19T05:18:04;100148.84;;;14.96;82.84
77583;BME280;66726;52.388;9.986;2023-09-19T05:20:35;100141.38;;;14.98;82.81
77583;BME280;66726;52.388;9.986;2023-09-19T05:23:06;100139.09;;;14.95;82.96
77583;BME280;66726;52.388;9.986;2023-09-19T05:25:37;100141.53;;;14.90;83.06
77583;BME280;66726;52.388;9.986;2023-09-19T05:28:07;100147.59;;;14.92;82.42
77583;BME280;66726;52.388;9.986;2023-09-19T05:30:36;100160.84;;;14.93;82.85
77583;BME280;66726;52.388;9.986;2023-09-19T05:33:05;100163.09;;;14.90;82.79
77583;BME280;66726;52.388;9.986;2023-09-19T05:35:36;100156.09;;;14.95;83.02
77583;BME280;66726;52.388;9.986;2023-09-19T05:38:07;100178.06;;;14.92;82.96
77583;BME280;66726;52.388;9.986;2023-09-19T05:40:37;100171.59;;;14.87;82.63
77583;BME280;66726;52.388;9.986;2023-09-19T05:43:06;100157.31;;;14.86;83.18
77583;BME280;66726;52.388;9.986;2023-09-19T05:45:35;100177.22;;;14.92;82.87
77583;BME280;66726;52.388;9.986;2023-09-19T05:48:09;100179.69;;;14.87;83.05
77583;BME280;66726;52.388;9.986;2023-09-19T05:50:40;100186.75;;;14.88;82.28
77583;BME280;66726;52.388;9.986;2023-09-19T05:53:08;100188.19;;;14.90;82.66
77583;BME280;66726;52.388;9.986;2023-09-19T05:55:39;100180.34;;;14.89;82.27
77583;BME280;66726;52.388;9.986;2023-09-19T05:58:08;100193.38;;;14.85;81.84
77583;BME280;66726;52.388;9.986;2023-09-19T06:00:37;100199.59;;;14.86;80.58
77583;BME280;66726;52.388;9.986;2023-09-19T06:03:06;100220.53;;;14.90;79.89
77583;BME280;66726;52.388;9.986;2023-09-19T06:05:35;100229.25;;;14.86;79.13
77583;BME280;66726;52.388;9.986;2023-09-19T06:08:09;100239.81;;;14.87;78.80
77583;BME280;66726;52.388;9.986;2023-09-19T06:10:38;100232.78;;;14.86;77.89
77583;BME280;66726;52.388;9.986;2023-09-19T06:13:06;100236.53;;;14.92;76.68
77583;BME280;66726;52.388;9.986;2023-09-19T06:15:37;100238.56;;;14.90;76.08
77583;BME280;66726;52.388;9.986;2023-09-19T06:18:11;100236.53;;;14.92;75.52
77583;BME280;66726;52.388;9.986;2023-09-19T06:20:42;100243.59;;;14.93;75.86
77583;BME280;66726;52.388;9.986;2023-09-19T06:23:13;100247.94;;;14.94;76.54
77583;BME280;66726;52.388;9.986;2023-09-19T06:25:41;100253.53;;;14.92;75.53
77583;BME280;66726;52.388;9.986;2023-09-19T06:28:11;100244.81;;;14.90;75.73
77583;BME280;66726;52.388;9.986;2023-09-19T06:30:40;100249.59;;;14.95;76.35
77583;BME280;66726;52.388;9.986;2023-09-19T06:33:09;100233.69;;;15.00;76.25
77583;BME280;66726;52.388;9.986;2023-09-19T06:35:42;100230.31;;;14.98;76.65
77583;BME280;66726;52.388;9.986;2023-09-19T06:38:13;100231.78;;;15.00;77.42
77583;BME280;66726;52.388;9.986;2023-09-19T06:40:42;100233.03;;;14.98;76.33
77583;BME280;66726;52.388;9.986;2023-09-19T06:43:11;100219.56;;;14.98;75.91
77583;BME280;66726;52.388;9.986;2023-09-19T06:45:40;100224.53;;;15.01;76.63
77583;BME280;66726;52.388;9.986;2023-09-19T06:48:09;100219.56;;;15.04;76.41
77583;BME280;66726;52.388;9.986;2023-09-19T06:50:39;100227.25;;;15.07;76.85
77583;BME280;66726;52.388;9.986;2023-09-19T06:53:08;100227.47;;;15.06;75.92
77583;BME280;66726;52.388;9.986;2023-09-19T06:55:38;100232.47;;;15.09;76.04
77583;BME280;66726;52.388;9.986;2023-09-19T06:58:07;100227.06;;;15.09;75.47
77583;BME280;66726;52.388;9.986;2023-09-19T07:00:35;100231.66;;;15.15;76.71
77583;BME280;66726;52.388;9.986;2023-09-19T07:03:07;100236.00;;;15.16;75.40
77583;BME280;66726;52.388;9.986;2023-09-19T07:05:40;100230.81;;;15.21;76.17
77583;BME280;66726;52.388;9.986;2023-09-19T07:08:10;100243.28;;;15.22;75.08
77583;BME280;66726;52.388;9.986;2023-09-19T07:10:42;100246.59;;;15.24;74.54
77583;BME280;66726;52.388;9.986;2023-09-19T07:13:12;100248.69;;;15.29;74.35
77583;BME280;66726;52.388;9.986;2023-09-19T07:15:44;100262.44;;;15.34;74.76
77583;BME280;66726;52.388;9.986;2023-09-19T07:18:15;100252.06;;;15.37;73.55
77583;BME280;66726;52.388;9.986;2023-09-19T07:20:45;100257.66;;;15.42;71.90
77583;BME280;66726;52.388;9.986;2023-09-19T07:23:17;100254.56;;;15.45;72.10
77583;BME280;66726;52.388;9.986;2023-09-19T07:25:47;100256.22;;;15.46;71.60
77583;BME280;66726;52.388;9.986;2023-09-19T07:28:16;100250.00;;;15.46;70.10
77583;BME280;66726;52.388;9.986;2023-09-19T07:30:44;100261.25;;;15.49;70.34
77583;BME280;66726;52.388;9.986;2023-09-19T07:33:13;100262.50;;;15.53;69.73
77583;BME280;66726;52.388;9.986;2023-09-19T07:35:45;100263.94;;;15.56;69.06
77583;BME280;66726;52.388;9.986;2023-09-19T07:38:14;100263.13;;;15.62;69.17
77583;BME280;66726;52.388;9.986;2023-09-19T07:40:46;100265.63;;;15.63;69.42
77583;BME280;66726;52.388;9.986;2023-09-19T07:43:14;100272.91;;;15.69;68.81
77583;BME280;66726;52.388;9.986;2023-09-19T07:45:45;100273.13;;;15.75;67.96
77583;BME280;66726;52.388;9.986;2023-09-19T07:48:14;100276.69;;;15.82;69.20
77583;BME280;66726;52.388;9.986;2023-09-19T07:50:43;100289.75;;;15.85;69.12
77583;BME280;66726;52.388;9.986;2023-09-19T07:53:12;100283.34;;;15.92;69.23
77583;BME280;66726;52.388;9.986;2023-09-19T07:55:45;100297.28;;;15.96;68.53
77583;BME280;66726;52.388;9.986;2023-09-19T07:58:15;100295.78;;;16.00;67.16
77583;BME280;66726;52.388;9.986;2023-09-19T08:00:44;100296.22;;;15.97;68.00
77583;BME280;66726;52.388;9.986;2023-09-19T08:03:13;100303.47;;;15.96;67.60
77583;BME280;66726;52.388;9.986;2023-09-19T08:05:44;100293.75;;;16.02;68.30
77583;BME280;66726;52.388;9.986;2023-09-19T08:08:13;100306.81;;;16.05;67.51
77583;BME280;66726;52.388;9.986;2023-09-19T08:10:43;100299.13;;;16.08;67.61
77583;BME280;66726;52.388;9.986;2023-09-19T08:13:15;100308.69;;;16.11;67.18
77583;BME280;66726;52.388;9.986;2023-09-19T08:15:45;100294.78;;;16.14;67.65
77583;BME280;66726;52.388;9.986;2023-09-19T08:18:15;100297.06;;;16.17;68.06
77583;BME280;66726;52.388;9.986;2023-09-19T08:20:48;100291.47;;;16.18;67.14
77583;BME280;66726;52.388;9.986;2023-09-19T08:23:17;100305.78;;;16.19;67.23
77583;BME280;66726;52.388;9.986;2023-09-19T08:25:47;100301.84;;;16.15;66.51
77583;BME280;66726;52.388;9.986;2023-09-19T08:28:17;100299.13;;;16.15;65.69
77583;BME280;66726;52.388;9.986;2023-09-19T08:30:51;100301.22;;;16.19;67.08
77583;BME280;66726;52.388;9.986;2023-09-19T08:33:22;100304.53;;;16.15;65.28
77583;BME280;66726;52.388;9.986;2023-09-19T08:35:50;100309.09;;;16.21;66.26
77583;BME280;66726;52.388;9.986;2023-09-19T08:38:19;100307.84;;;16.30;67.37
77583;BME280;66726;52.388;9.986;2023-09-19T08:40:47;100310.78;;;16.35;67.02
77583;BME280;66726;52.388;9.986;2023-09-19T08:43:21;100302.25;;;16.38;65.24
77583;BME280;66726;52.388;9.986;2023-09-19T08:45:53;100299.34;;;16.46;66.53
77583;BME280;66726;52.388;9.986;2023-09-19T08:48:27;100302.88;;;16.53;65.26
77583;BME280;66726;52.388;9.986;2023-09-19T08:51:00;100299.78;;;16.56;64.39
77583;BME280;66726;52.388;9.986;2023-09-19T08:53:39;100304.34;;;16.56;62.69
77583;BME280;66726;52.388;9.986;2023-09-19T08:56:13;100309.97;;;16.61;64.29
77583;BME280;66726;52.388;9.986;2023-09-19T08:58:46;100308.50;;;16.65;62.87
77583;BME280;66726;52.388;9.986;2023-09-19T09:01:16;100308.91;;;16.68;63.47
77583;BME280;66726;52.388;9.986;2023-09-19T09:03:52;100318.69;;;16.69;63.51
77583;BME280;66726;52.388;9.986;2023-09-19T09:06:21;100319.28;;;16.71;64.20
77583;BME280;66726;52.388;9.986;2023-09-19T09:08:51;100322.81;;;16.79;65.51
77583;BME280;66726;52.388;9.986;2023-09-19T09:11:20;100317.63;;;16.84;65.59
77583;BME280;66726;52.388;9.986;2023-09-19T09:13:51;100314.09;;;16.83;63.72
77583;BME280;66726;52.388;9.986;2023-09-19T09:16:20;100315.13;;;16.76;63.49
77583;BME280;66726;52.388;9.986;2023-09-19T09:18:53;100325.94;;;16.76;62.93
77583;BME280;66726;52.388;9.986;2023-09-19T09:21:23;100337.81;;;16.81;62.95
77583;BME280;66726;52.388;9.986;2023-09-19T09:23:53;100323.66;;;16.79;62.32
77583;BME280;66726;52.388;9.986;2023-09-19T09:26:42;100324.50;;;16.80;63.22
77583;BME280;66726;52.388;9.986;2023-09-19T09:29:12;100323.63;;;16.86;62.47
77583;BME280;66726;52.388;9.986;2023-09-19T09:31:47;100341.53;;;16.87;61.75
77583;BME280;66726;52.388;9.986;2023-09-19T09:34:16;100335.50;;;16.91;62.43
77583;BME280;66726;52.388;9.986;2023-09-19T09:36:48;100321.75;;;16.99;63.75
77583;BME280;66726;52.388;9.986;2023-09-19T09:39:30;100334.44;;;16.99;62.09
77583;BME280;66726;52.388;9.986;2023-09-19T09:41:59;100328.19;;;17.05;63.15
77583;BME280;66726;52.388;9.986;2023-09-19T09:44:29;100340.66;;;17.06;63.15
77583;BME280;66726;52.388;9.986;2023-09-19T09:46:59;100344.59;;;17.10;63.24
77583;BME280;66726;52.388;9.986;2023-09-19T09:49:48;100339.00;;;17.05;62.75
77583;BME280;66726;52.388;9.986;2023-09-19T09:52:45;100341.03;;;17.16;62.48
77583;BME280;66726;52.388;9.986;2023-09-19T09:55:14;100346.88;;;17.13;62.50
77583;BME280;66726;52.388;9.986;2023-09-19T09:57:43;100346.28;;;17.11;63.30
77583;BME280;66726;52.388;9.986;2023-09-19T10:00:13;100344.84;;;17.02;61.68
77583;BME280;66726;52.388;9.986;2023-09-19T10:02:47;100337.50;;;17.09;61.62
77583;BME280;66726;52.388;9.986;2023-09-19T10:05:18;100344.56;;;17.16;61.49
77583;BME280;66726;52.388;9.986;2023-09-19T10:07:50;100345.59;;;17.29;62.46
77583;BME280;66726;52.388;9.986;2023-09-19T10:10:34;100340.63;;;17.26;61.94
77583;BME280;66726;52.388;9.986;2023-09-19T10:13:12;100346.00;;;17.32;60.78
77583;BME280;66726;52.388;9.986;2023-09-19T10:15:46;100355.97;;;17.38;60.69
77583;BME280;66726;52.388;9.986;2023-09-19T10:18:20;100350.97;;;17.35;59.67
77583;BME280;66726;52.388;9.986;2023-09-19T10:20:49;100348.31;;;17.29;59.37
77583;BME280;66726;52.388;9.986;2023-09-19T10:23:19;100355.59;;;17.28;59.31
77583;BME280;66726;52.388;9.986;2023-09-19T10:25:51;100350.97;;;17.35;60.61
77583;BME280;66726;52.388;9.986;2023-09-19T10:28:21;100346.16;;;17.44;61.43
77583;BME280;66726;52.388;9.986;2023-09-19T10:30:52;100337.59;;;17.53;60.35
77583;BME280;66726;52.388;9.986;2023-09-19T10:33:23;100341.31;;;17.65;60.44
77583;BME280;66726;52.388;9.986;2023-09-19T10:35:54;100342.75;;;17.68;61.16
77583;BME280;66726;52.388;9.986;2023-09-19T10:38:25;100339.63;;;17.64;61.26
77583;BME280;66726;52.388;9.986;2023-09-19T10:40:57;100347.31;;;17.67;60.41
77583;BME280;66726;52.388;9.986;2023-09-19T10:43:31;100343.94;;;17.79;59.96
77583;BME280;66726;52.388;9.986;2023-09-19T10:46:07;100341.88;;;17.81;59.92
77583;BME280;66726;52.388;9.986;2023-09-19T10:48:38;100339.91;;;17.88;59.30
77583;BME280;66726;52.388;9.986;2023-09-19T10:51:10;100346.97;;;17.95;60.43
77583;BME280;66726;52.388;9.986;2023-09-19T10:53:45;100345.31;;;17.94;60.36
77583;BME280;66726;52.388;9.986;2023-09-19T10:56:21;100351.03;;;17.80;59.32
77583;BME280;66726;52.388;9.986;2023-09-19T10:58:52;100339.06;;;17.94;61.11
77583;BME280;66726;52.388;9.986;2023-09-19T11:01:22;100337.06;;;18.14;59.58
77583;BME280;66726;52.388;9.986;2023-09-19T11:04:26;100342.91;;;18.11;56.96
77583;BME280;66726;52.388;9.986;2023-09-19T11:07:04;100345.19;;;18.14;58.28
77583;BME280;66726;52.388;9.986;2023-09-19T11:09:46;100348.44;;;18.22;58.68
77583;BME280;66726;52.388;9.986;2023-09-19T11:18:54;100333.38;;;18.33;56.84
77583;BME280;66726;52.388;9.986;2023-09-19T11:21:55;100330.84;;;18.38;55.96
77583;BME280;66726;52.388;9.986;2023-09-19T11:24:32;100325.34;;;18.45;55.56
77583;BME280;66726;52.388;9.986;2023-09-19T11:27:15;100329.34;;;18.42;55.02
77583;BME280;66726;52.388;9.986;2023-09-19T11:29:45;100327.50;;;18.36;54.29
77583;BME280;66726;52.388;9.986;2023-09-19T11:32:14;100325.94;;;18.53;55.47
77583;BME280;66726;52.388;9.986;2023-09-19T11:34:46;100323.31;;;18.65;56.57
77583;BME280;66726;52.388;9.986;2023-09-19T11:40:52;100324.75;;;18.67;55.19
77583;BME280;66726;52.388;9.986;2023-09-19T11:43:36;100334.22;;;18.83;57.22
77583;BME280;66726;52.388;9.986;2023-09-19T11:46:08;100330.34;;;18.91;55.47
77583;BME280;66726;52.388;9.986;2023-09-19T11:48:42;100329.28;;;18.73;54.03
77583;BME280;66726;52.388;9.986;2023-09-19T11:51:12;100329.47;;;18.79;54.48
77583;BME280;66726;52.388;9.986;2023-09-19T11:53:47;100326.16;;;18.77;53.39
77583;BME280;66726;52.388;9.986;2023-09-19T11:56:19;100318.44;;;18.73;53.14
77583;BME280;66726;52.388;9.986;2023-09-19T11:58:50;100323.44;;;18.77;52.20
77583;BME280;66726;52.388;9.986;2023-09-19T12:01:25;100329.28;;;18.73;53.23
77583;BME280;66726;52.388;9.986;2023-09-19T12:03:58;100325.38;;;18.88;54.80
77583;BME280;66726;52.388;9.986;2023-09-19T12:06:28;100334.28;;;18.95;52.77
77583;BME280;66726;52.388;9.986;2023-09-19T12:08:57;100323.81;;;18.98;51.94
77583;BME280;66726;52.388;9.986;2023-09-19T12:11:30;100338.28;;;18.92;52.61
77583;BME280;66726;52.388;9.986;2023-09-19T12:14:02;100331.06;;;18.86;53.26
77583;BME280;66726;52.388;9.986;2023-09-19T12:16:31;100332.28;;;18.90;54.89
77583;BME280;66726;52.388;9.986;2023-09-19T12:19:19;100332.03;;;18.92;53.99
77583;BME280;66726;52.388;9.986;2023-09-19T12:21:57;100337.47;;;18.92;54.68
77583;BME280;66726;52.388;9.986;2023-09-19T12:24:27;100324.16;;;18.84;53.76
77583;BME280;66726;52.388;9.986;2023-09-19T12:27:02;100332.31;;;18.84;55.04
77583;BME280;66726;52.388;9.986;2023-09-19T12:29:42;100329.84;;;18.82;55.64
77583;BME280;66726;52.388;9.986;2023-09-19T12:32:12;100329.28;;;18.73;53.99
77583;BME280;66726;52.388;9.986;2023-09-19T12:34:42;100335.94;;;18.78;54.54
77583;BME280;66726;52.388;9.986;2023-09-19T12:37:12;100337.28;;;18.68;54.14
77583;BME280;66726;52.388;9.986;2023-09-19T12:39:44;100332.50;;;18.64;54.75
77583;BME280;66726;52.388;9.986;2023-09-19T12:42:18;100335.78;;;18.72;55.65
77583;BME280;66726;52.388;9.986;2023-09-19T12:44:49;100329.28;;;18.73;55.71
77583;BME280;66726;52.388;9.986;2023-09-19T12:47:22;100330.56;;;18.71;55.33
77583;BME280;66726;52.388;9.986;2023-09-19T12:50:08;100334.78;;;18.67;55.61
77583;BME280;66726;52.388;9.986;2023-09-19T12:52:45;100335.03;;;18.84;55.43
77583;BME280;66726;52.388;9.986;2023-09-19T12:55:25;100326.28;;;18.82;54.83
77583;BME280;66726;52.388;9.986;2023-09-19T12:58:07;100324.50;;;18.94;54.55
77583;BME280;66726;52.388;9.986;2023-09-19T13:00:38;100315.69;;;18.98;54.73
77583;BME280;66726;52.388;9.986;2023-09-19T13:03:16;100313.81;;;19.17;54.51
77583;BME280;66726;52.388;9.986;2023-09-19T13:05:50;100320.56;;;19.08;54.44
77583;BME280;66726;52.388;9.986;2023-09-19T13:08:23;100321.72;;;19.00;54.28
77583;BME280;66726;52.388;9.986;2023-09-19T13:11:04;100319.22;;;18.99;55.11
77583;BME280;66726;52.388;9.986;2023-09-19T13:13:40;100313.22;;;18.97;53.94
77583;BME280;66726;52.388;9.986;2023-09-19T13:16:12;100311.63;;;18.89;53.43
77583;BME280;66726;52.388;9.986;2023-09-19T13:18:47;100308.53;;;19.04;54.20
77583;BME280;66726;52.388;9.986;2023-09-19T13:21:28;100318.16;;;19.18;53.53
77583;BME280;66726;52.388;9.986;2023-09-19T13:24:18;100305.13;;;19.27;52.26
77583;BME280;66726;52.388;9.986;2023-09-19T13:26:47;100302.78;;;19.30;53.20